Time;durP1;ratioP1;P1;durP2;ratioP2;P2;SDS_P1;SDS_P2;PMS_P1;PMS_P2;Temp;Humidity;BMP_temperature;BMP_pressure;BME280_temperature;BME280_humidity;BME280_pressure;Samples;Min_cycle;Max_cycle;Signal;HPM_P1;HPM_P2
2024/03/19 00:00:31;;;;;;;8.50;5.00;;;;;;;;;;5106240;28;20020;-57
2024/03/19 00:02:57;;;;;;;8.70;5.20;;;;;;;;;;5105296;28;20459;-55
2024/03/19 00:05:25;;;;;;;8.80;5.20;;;;;;;;;;5102723;28;20020;-55
2024/03/19 00:07:51;;;;;;;8.30;4.95;;;;;;;;;;5085418;28;20035;-58
2024/03/19 00:10:17;;;;;;;8.70;5.10;;;;;;;;;;5085145;28;20036;-53
2024/03/19 00:12:43;;;;;;;8.38;5.00;;;;;;;;;;5103710;28;20080;-56
2024/03/19 00:15:09;;;;;;;8.50;5.10;;;;;;;;;;5105377;28;20020;-55
2024/03/19 00:17:38;;;;;;;8.95;5.30;;;;;;;;;;5087355;28;20023;-54
2024/03/19 00:20:09;;;;;;;8.80;5.20;;;;;;;;;;5089883;28;20039;-53
2024/03/19 00:22:35;;;;;;;8.50;5.00;;;;;;;;;;5084639;28;20036;-56
2024/03/19 00:25:02;;;;;;;8.63;5.10;;;;;;;;;;5066579;28;20055;-55
2024/03/19 00:27:28;;;;;;;8.82;5.22;;;;;;;;;;5084894;28;20040;-56
2024/03/19 00:29:54;;;;;;;8.68;5.10;;;;;;;;;;5085197;28;20026;-56
2024/03/19 00:32:20;;;;;;;9.02;5.40;;;;;;;;;;5084745;28;20408;-55
2024/03/19 00:34:47;;;;;;;9.00;5.35;;;;;;;;;;5084601;28;20032;-53
2024/03/19 00:37:13;;;;;;;8.82;5.22;;;;;;;;;;5084549;28;20072;-54
2024/03/19 00:39:39;;;;;;;8.93;5.30;;;;;;;;;;5095515;28;20062;-52
2024/03/19 00:42:06;;;;;;;8.80;5.20;;;;;;;;;;5109451;28;20064;-49
2024/03/19 00:44:32;;;;;;;9.10;5.40;;;;;;;;;;5108737;28;20088;-57
2024/03/19 00:46:59;;;;;;;8.90;5.28;;;;;;;;;;5116570;22;20138;-50
2024/03/19 00:49:26;;;;;;;8.90;5.30;;;;;;;;;;5074479;28;20043;-51
2024/03/19 00:51:52;;;;;;;13.65;10.38;;;;;;;;;;5093226;28;20508;-52
2024/03/19 00:54:18;;;;;;;10.05;6.35;;;;;;;;;;5092965;28;20077;-53
2024/03/19 00:56:44;;;;;;;8.85;5.30;;;;;;;;;;5075209;28;20432;-54
2024/03/19 00:59:10;;;;;;;9.00;5.30;;;;;;;;;;5075212;28;20028;-51
2024/03/19 01:01:36;;;;;;;9.15;5.40;;;;;;;;;;5092916;28;20047;-48
2024/03/19 01:04:05;;;;;;;9.13;5.40;;;;;;;;;;5093210;28;20032;-53
2024/03/19 01:06:38;;;;;;;9.02;5.32;;;;;;;;;;5094138;28;20058;-55
2024/03/19 01:09:12;;;;;;;8.75;5.20;;;;;;;;;;5093872;28;20477;-52
2024/03/19 01:11:39;;;;;;;9.60;5.70;;;;;;;;;;5093806;28;20524;-51
2024/03/19 01:14:05;;;;;;;9.40;5.60;;;;;;;;;;5093399;28;20547;-53
2024/03/19 01:16:33;;;;;;;9.20;5.47;;;;;;;;;;5093641;28;20020;-53
2024/03/19 01:18:58;;;;;;;9.20;5.47;;;;;;;;;;5093670;28;20028;-55
2024/03/19 01:21:25;;;;;;;9.30;5.50;;;;;;;;;;5075446;28;20500;-52
2024/03/19 01:23:51;;;;;;;9.23;5.45;;;;;;;;;;5074711;28;20059;-51
2024/03/19 01:26:18;;;;;;;9.50;5.63;;;;;;;;;;5093678;28;20048;-51
2024/03/19 01:28:44;;;;;;;9.60;5.70;;;;;;;;;;5075403;28;20024;-51
2024/03/19 01:31:10;;;;;;;9.20;5.50;;;;;;;;;;5093436;28;20294;-55
2024/03/19 01:33:36;;;;;;;9.50;5.70;;;;;;;;;;5092826;28;20489;-50
2024/03/19 01:36:02;;;;;;;9.38;5.50;;;;;;;;;;5074999;28;20032;-54
2024/03/19 01:38:28;;;;;;;9.50;5.65;;;;;;;;;;5093507;28;20020;-51
2024/03/19 01:40:54;;;;;;;9.77;5.70;;;;;;;;;;5093222;28;20420;-51
2024/03/19 01:43:20;;;;;;;16.83;15.32;;;;;;;;;;5092638;28;20032;-49
2024/03/19 01:46:06;;;;;;;9.70;5.78;;;;;;;;;;5074824;28;20028;-52
2024/03/19 01:48:32;;;;;;;10.07;5.90;;;;;;;;;;5092902;28;20024;-51
2024/03/19 01:50:59;;;;;;;10.20;6.00;;;;;;;;;;5092025;28;20043;-52
2024/03/19 01:53:25;;;;;;;10.30;6.10;;;;;;;;;;5092556;28;20034;-49
2024/03/19 01:55:51;;;;;;;10.13;6.00;;;;;;;;;;5092926;28;20048;-53
2024/03/19 01:58:17;;;;;;;8.65;5.13;;;;;;;;;;5074749;28;20522;-52
2024/03/19 02:00:44;;;;;;;9.90;5.80;;;;;;;;;;5093018;28;20020;-53
2024/03/19 02:03:13;;;;;;;10.00;5.90;;;;;;;;;;5092483;28;20493;-57
2024/03/19 02:05:39;;;;;;;9.43;5.55;;;;;;;;;;5092987;28;20032;-52
2024/03/19 02:08:05;;;;;;;9.70;5.70;;;;;;;;;;5092925;28;20077;-54
2024/03/19 02:10:32;;;;;;;12.15;10.73;;;;;;;;;;5093237;28;20026;-56
2024/03/19 02:12:58;;;;;;;9.50;5.60;;;;;;;;;;5092384;28;20027;-53
2024/03/19 02:15:24;;;;;;;9.32;5.50;;;;;;;;;;5092766;28;20030;-54
2024/03/19 02:17:50;;;;;;;9.70;5.80;;;;;;;;;;5092837;28;20173;-50
2024/03/19 02:20:16;;;;;;;9.55;5.68;;;;;;;;;;5092715;28;20024;-51
2024/03/19 02:22:43;;;;;;;9.50;5.70;;;;;;;;;;5091747;28;20402;-55
2024/03/19 02:25:09;;;;;;;9.68;5.70;;;;;;;;;;5092434;28;20027;-49
2024/03/19 02:27:35;;;;;;;9.43;5.60;;;;;;;;;;5092386;28;20066;-52
2024/03/19 02:30:01;;;;;;;10.55;6.75;;;;;;;;;;5092209;28;20031;-54
2024/03/19 02:32:29;;;;;;;10.00;6.20;;;;;;;;;;5091736;28;20109;-51
2024/03/19 02:34:55;;;;;;;9.20;5.40;;;;;;;;;;5092416;28;20020;-56
2024/03/19 02:37:21;;;;;;;9.70;5.70;;;;;;;;;;5073967;28;20081;-51
2024/03/19 02:39:47;;;;;;;10.57;6.25;;;;;;;;;;5092223;28;20032;-52
2024/03/19 02:42:13;;;;;;;10.70;6.30;;;;;;;;;;5091699;28;20574;-54
2024/03/19 02:44:39;;;;;;;10.40;6.10;;;;;;;;;;5091714;28;20024;-51
2024/03/19 02:47:05;;;;;;;10.20;6.00;;;;;;;;;;5092015;28;20503;-54
2024/03/19 02:49:31;;;;;;;9.98;5.90;;;;;;;;;;5073744;28;20032;-55
2024/03/19 02:51:57;;;;;;;9.73;5.75;;;;;;;;;;5091715;28;20028;-55
2024/03/19 02:54:23;;;;;;;9.90;5.88;;;;;;;;;;5091464;28;20020;-52
2024/03/19 02:56:49;;;;;;;9.40;5.60;;;;;;;;;;5073631;28;20024;-55
2024/03/19 02:59:15;;;;;;;9.98;5.93;;;;;;;;;;5091990;28;20505;-49
2024/03/19 03:01:41;;;;;;;10.20;6.00;;;;;;;;;;5090502;28;20031;-49
2024/03/19 03:04:07;;;;;;;9.80;5.80;;;;;;;;;;5091376;28;20028;-53
2024/03/19 03:06:33;;;;;;;9.75;5.75;;;;;;;;;;5091595;28;20152;-50
2024/03/19 03:08:59;;;;;;;10.20;6.00;;;;;;;;;;5073542;28;20494;-49
2024/03/19 03:11:25;;;;;;;9.40;5.50;;;;;;;;;;5091509;28;20020;-51
2024/03/19 03:13:51;;;;;;;10.10;6.00;;;;;;;;;;5091040;28;20099;-49
2024/03/19 03:16:17;;;;;;;9.90;5.82;;;;;;;;;;5091530;28;20166;-52
2024/03/19 03:18:44;;;;;;;10.00;5.90;;;;;;;;;;5091769;28;20039;-53
2024/03/19 03:21:10;;;;;;;10.50;6.88;;;;;;;;;;5073380;28;20027;-55
2024/03/19 03:23:36;;;;;;;9.82;5.90;;;;;;;;;;5090611;28;20490;-49
2024/03/19 03:26:02;;;;;;;10.13;5.97;;;;;;;;;;5091252;28;20028;-49
2024/03/19 03:28:28;;;;;;;10.07;5.93;;;;;;;;;;5091376;28;20028;-55
2024/03/19 03:30:54;;;;;;;9.73;5.75;;;;;;;;;;5091499;28;20024;-52
2024/03/19 03:33:22;;;;;;;9.60;5.72;;;;;;;;;;5072664;28;20016;-50
2024/03/19 03:35:48;;;;;;;9.88;5.85;;;;;;;;;;5091105;28;20428;-50
2024/03/19 03:38:14;;;;;;;10.50;6.15;;;;;;;;;;5091139;28;20026;-49
2024/03/19 03:40:40;;;;;;;10.18;6.00;;;;;;;;;;5091120;28;20058;-51
2024/03/19 03:43:06;;;;;;;9.88;5.88;;;;;;;;;;5072146;28;20020;-49
2024/03/19 03:45:32;;;;;;;10.05;5.90;;;;;;;;;;5073632;28;20035;-51
2024/03/19 03:47:58;;;;;;;10.00;5.90;;;;;;;;;;5073011;28;20056;-50
2024/03/19 03:50:24;;;;;;;9.95;5.90;;;;;;;;;;5091054;28;20100;-51
2024/03/19 03:52:51;;;;;;;10.30;6.07;;;;;;;;;;5090341;28;20040;-46
2024/03/19 03:55:17;;;;;;;10.70;6.30;;;;;;;;;;5090858;28;20540;-45
2024/03/19 03:57:45;;;;;;;10.50;6.20;;;;;;;;;;5072860;28;20024;-48
2024/03/19 04:00:12;;;;;;;10.85;6.40;;;;;;;;;;5090843;28;20024;-50
2024/03/19 04:02:42;;;;;;;10.13;5.95;;;;;;;;;;5090222;28;20511;-52
2024/03/19 04:05:08;;;;;;;10.23;6.05;;;;;;;;;;5090769;28;20027;-49
2024/03/19 04:07:41;;;;;;;10.48;6.20;;;;;;;;;;5090790;28;20032;-49
2024/03/19 04:10:10;;;;;;;10.88;6.40;;;;;;;;;;5090814;28;20451;-51
2024/03/19 04:12:36;;;;;;;10.52;6.22;;;;;;;;;;5071842;28;20031;-51
2024/03/19 04:15:06;;;;;;;10.45;6.13;;;;;;;;;;5090100;28;20439;-49
2024/03/19 04:17:33;;;;;;;10.07;5.95;;;;;;;;;;5090551;28;20384;-50
2024/03/19 04:19:59;;;;;;;10.25;6.03;;;;;;;;;;5090622;28;20116;-51
2024/03/19 04:22:26;;;;;;;10.57;6.20;;;;;;;;;;5089850;28;20444;-48
2024/03/19 04:24:52;;;;;;;10.48;6.20;;;;;;;;;;5090544;28;20020;-48
2024/03/19 04:27:18;;;;;;;10.98;6.45;;;;;;;;;;5090509;28;20103;-53
2024/03/19 04:29:44;;;;;;;12.85;9.70;;;;;;;;;;5090395;28;20023;-52
2024/03/19 04:32:11;;;;;;;10.75;6.30;;;;;;;;;;5090226;28;20047;-47
2024/03/19 04:34:38;;;;;;;10.50;6.15;;;;;;;;;;5089978;28;20016;-48
2024/03/19 04:37:04;;;;;;;10.45;6.15;;;;;;;;;;5089864;28;20025;-47
2024/03/19 04:39:30;;;;;;;9.77;5.78;;;;;;;;;;5072342;28;20169;-48
2024/03/19 04:41:56;;;;;;;10.05;5.93;;;;;;;;;;5090261;28;20031;-49
2024/03/19 04:44:22;;;;;;;10.60;6.25;;;;;;;;;;5089574;28;20024;-48
2024/03/19 04:46:48;;;;;;;10.80;6.35;;;;;;;;;;5090109;28;20035;-50
2024/03/19 04:49:14;;;;;;;10.60;6.25;;;;;;;;;;5090287;28;20405;-46
2024/03/19 04:51:40;;;;;;;10.48;6.20;;;;;;;;;;5090859;28;20035;-55
2024/03/19 04:54:06;;;;;;;10.80;6.40;;;;;;;;;;5090976;28;20027;-50
2024/03/19 04:56:32;;;;;;;10.85;6.38;;;;;;;;;;5090555;28;20028;-53
2024/03/19 04:58:58;;;;;;;11.07;6.50;;;;;;;;;;5090408;28;20032;-49
2024/03/19 05:01:24;;;;;;;10.73;6.32;;;;;;;;;;5090220;28;20181;-50
2024/03/19 05:03:50;;;;;;;10.85;6.38;;;;;;;;;;5090383;28;20047;-53
2024/03/19 05:06:16;;;;;;;11.43;6.70;;;;;;;;;;5072676;28;20038;-49
2024/03/19 05:08:44;;;;;;;11.82;6.93;;;;;;;;;;5090227;28;20051;-48
2024/03/19 05:11:10;;;;;;;12.02;7.03;;;;;;;;;;5090042;28;20650;-46
2024/03/19 05:13:36;;;;;;;11.95;7.00;;;;;;;;;;5089493;28;20153;-52
2024/03/19 05:16:02;;;;;;;12.32;7.20;;;;;;;;;;5090005;28;20111;-48
2024/03/19 05:18:28;;;;;;;12.50;7.30;;;;;;;;;;5071961;28;20075;-51
2024/03/19 05:20:54;;;;;;;12.30;7.20;;;;;;;;;;5089878;28;20024;-49
2024/03/19 05:23:20;;;;;;;12.10;7.10;;;;;;;;;;5088946;28;20032;-48
2024/03/19 05:25:46;;;;;;;12.43;7.22;;;;;;;;;;5089686;28;20020;-49
2024/03/19 05:28:12;;;;;;;12.30;7.20;;;;;;;;;;5093717;28;20024;-52
2024/03/19 05:30:38;;;;;;;13.60;9.15;;;;;;;;;;5075294;28;20065;-48
2024/03/19 05:33:04;;;;;;;12.68;7.43;;;;;;;;;;5092793;28;20442;-49
2024/03/19 05:35:30;;;;;;;13.02;7.60;;;;;;;;;;5093490;28;20031;-50
2024/03/19 05:37:57;;;;;;;12.90;7.60;;;;;;;;;;5093541;28;20016;-49
2024/03/19 05:40:23;;;;;;;12.65;7.38;;;;;;;;;;5093579;28;20434;-50
2024/03/19 05:42:49;;;;;;;13.05;7.57;;;;;;;;;;5092539;28;20108;-49
2024/03/19 05:45:15;;;;;;;14.90;8.57;;;;;;;;;;5093121;28;20030;-49
2024/03/19 05:47:41;;;;;;;12.63;7.35;;;;;;;;;;5093248;28;20075;-49
2024/03/19 05:50:08;;;;;;;12.80;7.40;;;;;;;;;;5075017;28;20482;-50
2024/03/19 05:52:34;;;;;;;12.73;7.40;;;;;;;;;;5092905;28;20435;-49
2024/03/19 05:55:00;;;;;;;13.05;7.57;;;;;;;;;;5093803;28;20074;-50
2024/03/19 05:57:26;;;;;;;12.77;7.47;;;;;;;;;;5093501;28;20024;-48
2024/03/19 05:59:53;;;;;;;12.27;7.20;;;;;;;;;;5093533;28;20470;-51
2024/03/19 06:02:19;;;;;;;12.30;7.13;;;;;;;;;;5093152;28;20061;-48
2024/03/19 06:04:45;;;;;;;12.18;7.10;;;;;;;;;;5093077;28;20442;-50
2024/03/19 06:07:11;;;;;;;12.60;7.40;;;;;;;;;;5094071;28;20039;-53
2024/03/19 06:09:43;;;;;;;12.18;7.07;;;;;;;;;;5075030;28;20104;-51
2024/03/19 06:12:10;;;;;;;12.55;7.60;;;;;;;;;;5092533;28;20088;-53
2024/03/19 06:14:36;;;;;;;12.27;7.20;;;;;;;;;;5092540;28;20091;-49
2024/03/19 06:17:02;;;;;;;12.52;7.30;;;;;;;;;;5074337;28;20645;-48
2024/03/19 06:19:28;;;;;;;12.68;7.40;;;;;;;;;;5092382;28;20030;-49
2024/03/19 06:21:54;;;;;;;12.68;7.45;;;;;;;;;;5092013;28;20016;-51
2024/03/19 06:24:20;;;;;;;12.68;7.40;;;;;;;;;;5091664;28;20052;-53
2024/03/19 06:26:46;;;;;;;12.82;7.45;;;;;;;;;;5091841;28;20020;-50
2024/03/19 06:29:12;;;;;;;12.95;7.60;;;;;;;;;;5089293;28;20077;-50
2024/03/19 06:31:38;;;;;;;12.63;7.40;;;;;;;;;;5091479;28;20113;-50
2024/03/19 06:34:04;;;;;;;13.10;7.70;;;;;;;;;;5091400;28;20095;-49
2024/03/19 06:36:30;;;;;;;12.95;7.53;;;;;;;;;;5091636;28;20024;-49
2024/03/19 06:38:57;;;;;;;13.13;7.70;;;;;;;;;;5077803;28;20101;-51
2024/03/19 06:41:23;;;;;;;13.10;7.70;;;;;;;;;;5071315;28;20025;-50
2024/03/19 06:43:49;;;;;;;13.15;7.80;;;;;;;;;;5070799;28;20063;-50
2024/03/19 06:46:15;;;;;;;13.18;7.70;;;;;;;;;;5086359;22;20092;-56
2024/03/19 06:48:45;;;;;;;13.20;7.72;;;;;;;;;;5033183;28;20075;-56
2024/03/19 06:51:11;;;;;;;13.40;8.05;;;;;;;;;;5033417;28;20498;-54
2024/03/19 06:53:38;;;;;;;13.40;8.00;;;;;;;;;;5051058;28;20131;-54
2024/03/19 06:56:10;;;;;;;13.32;7.95;;;;;;;;;;5051033;28;20029;-52
2024/03/19 06:58:36;;;;;;;13.18;7.70;;;;;;;;;;5051181;28;20506;-56
2024/03/19 07:01:06;;;;;;;12.88;7.50;;;;;;;;;;5033207;28;20025;-53
2024/03/19 07:03:32;;;;;;;13.05;7.60;;;;;;;;;;5041666;28;20605;-55
2024/03/19 07:05:58;;;;;;;12.90;7.50;;;;;;;;;;5050918;28;20399;-54
2024/03/19 07:08:26;;;;;;;12.75;7.40;;;;;;;;;;5033005;28;20368;-57
2024/03/19 07:10:54;;;;;;;12.88;7.50;;;;;;;;;;5033363;28;20021;-55
2024/03/19 07:13:21;;;;;;;12.77;7.45;;;;;;;;;;5032426;28;20029;-54
2024/03/19 07:15:46;;;;;;;14.00;10.05;;;;;;;;;;5050572;28;20048;-56
2024/03/19 07:18:13;;;;;;;13.98;9.75;;;;;;;;;;5050809;28;20447;-52
2024/03/19 07:20:40;;;;;;;13.88;9.40;;;;;;;;;;5050796;28;20021;-53
2024/03/19 07:23:06;;;;;;;14.00;9.80;;;;;;;;;;5049911;28;20021;-53
2024/03/19 07:25:33;;;;;;;13.98;9.70;;;;;;;;;;5050518;28;20048;-55
2024/03/19 07:27:59;;;;;;;14.00;9.80;;;;;;;;;;5032952;28;20036;-52
2024/03/19 07:30:26;;;;;;;13.82;9.35;;;;;;;;;;5037650;28;20529;-55
2024/03/19 07:32:55;;;;;;;14.40;9.80;;;;;;;;;;5012095;28;20021;-51
2024/03/19 07:35:21;;;;;;;13.93;9.65;;;;;;;;;;5013417;28;20032;-54
2024/03/19 07:37:49;;;;;;;13.95;9.70;;;;;;;;;;5030250;28;20120;-53
2024/03/19 07:40:18;;;;;;;14.05;9.75;;;;;;;;;;5030272;28;20100;-51
2024/03/19 07:42:44;;;;;;;14.07;10.00;;;;;;;;;;5029447;28;20021;-48
2024/03/19 07:45:10;;;;;;;13.88;9.38;;;;;;;;;;5030272;28;20541;-51
2024/03/19 07:47:36;;;;;;;13.90;9.65;;;;;;;;;;5012378;28;20029;-54
2024/03/19 07:50:07;;;;;;;14.93;10.35;;;;;;;;;;5012419;28;20215;-53
2024/03/19 07:52:34;;;;;;;13.85;9.43;;;;;;;;;;5012258;28;20025;-54
2024/03/19 07:55:00;;;;;;;13.90;9.40;;;;;;;;;;5030012;28;20091;-56
2024/03/19 07:57:27;;;;;;;16.15;10.27;;;;;;;;;;5012249;28;20030;-51
2024/03/19 07:59:53;;;;;;;13.75;9.02;;;;;;;;;;5012437;28;20025;-56
2024/03/19 08:02:20;;;;;;;13.70;9.00;;;;;;;;;;5029866;28;20030;-54
2024/03/19 08:04:52;;;;;;;13.68;8.95;;;;;;;;;;5026577;28;20112;-50
2024/03/19 08:07:19;;;;;;;13.60;8.77;;;;;;;;;;5050054;28;20040;-51
2024/03/19 08:09:47;;;;;;;13.60;8.60;;;;;;;;;;5032056;28;20021;-54
2024/03/19 08:12:15;;;;;;;13.70;8.50;;;;;;;;;;5049571;28;20100;-53
2024/03/19 08:14:41;;;;;;;13.48;8.30;;;;;;;;;;5049553;28;20040;-49
2024/03/19 08:17:07;;;;;;;13.52;8.40;;;;;;;;;;5049997;28;20021;-50
2024/03/19 08:19:33;;;;;;;13.48;8.30;;;;;;;;;;5049950;28;20036;-52
2024/03/19 08:22:00;;;;;;;13.50;8.57;;;;;;;;;;5031931;28;20036;-53
2024/03/19 08:24:26;;;;;;;13.75;9.30;;;;;;;;;;5031553;28;20115;-53
2024/03/19 08:26:52;;;;;;;13.63;8.75;;;;;;;;;;5049929;28;20029;-55
2024/03/19 08:29:18;;;;;;;13.45;8.35;;;;;;;;;;5049960;28;20079;-50
2024/03/19 08:31:44;;;;;;;13.88;9.52;;;;;;;;;;5031441;28;20028;-52
2024/03/19 08:34:10;;;;;;;13.50;8.70;;;;;;;;;;5029607;28;20488;-56
2024/03/19 08:36:36;;;;;;;13.57;8.45;;;;;;;;;;5030308;28;20087;-52
2024/03/19 08:39:04;;;;;;;13.50;8.32;;;;;;;;;;5030478;28;20129;-54
2024/03/19 08:41:30;;;;;;;13.63;8.25;;;;;;;;;;5030342;28;20025;-55
2024/03/19 08:43:56;;;;;;;13.52;8.60;;;;;;;;;;5029863;28;20506;-52
2024/03/19 08:46:22;;;;;;;13.52;8.43;;;;;;;;;;5030356;28;20029;-55
2024/03/19 08:48:48;;;;;;;13.73;9.57;;;;;;;;;;5029790;28;20030;-52
2024/03/19 08:51:15;;;;;;;13.60;8.68;;;;;;;;;;5029900;28;20630;-54
2024/03/19 08:53:45;;;;;;;14.23;9.32;;;;;;;;;;5012136;28;20112;-53
2024/03/19 08:56:11;;;;;;;13.60;8.65;;;;;;;;;;5029756;28;20021;-54
2024/03/19 08:58:39;;;;;;;13.55;8.45;;;;;;;;;;5030233;28;20099;-57
2024/03/19 09:01:05;;;;;;;;;;;;;;;;;;5032728;28;20104;-52
2024/03/19 09:03:31;;;;;;;13.32;7.95;;;;;;;;;;5032238;28;19986;-54
2024/03/19 09:05:58;;;;;;;13.50;8.30;;;;;;;;;;5016090;28;20472;-52
2024/03/19 09:08:24;;;;;;;13.40;8.38;;;;;;;;;;5033662;28;20067;-53
2024/03/19 09:10:54;;;;;;;13.43;8.10;;;;;;;;;;5033498;28;20841;-53
2024/03/19 09:13:20;;;;;;;13.60;8.90;;;;;;;;;;5038561;28;20459;-55
2024/03/19 09:15:46;;;;;;;14.15;8.73;;;;;;;;;;5036934;28;20383;-55
2024/03/19 09:18:13;;;;;;;13.30;7.90;;;;;;;;;;5027924;28;20453;-54
2024/03/19 09:20:39;;;;;;;13.05;7.72;;;;;;;;;;5054355;28;20058;-54
2024/03/19 09:23:05;;;;;;;13.50;8.32;;;;;;;;;;5053229;28;20021;-55
2024/03/19 09:25:31;;;;;;;13.70;8.20;;;;;;;;;;5053785;28;20029;-55
2024/03/19 09:27:57;;;;;;;13.45;8.20;;;;;;;;;;5053855;28;20031;-55
2024/03/19 09:30:23;;;;;;;13.80;8.20;;;;;;;;;;5045909;28;20037;-53
2024/03/19 09:32:50;;;;;;;13.48;8.40;;;;;;;;;;5032601;28;20018;-54
2024/03/19 09:35:16;;;;;;;13.32;8.23;;;;;;;;;;5033432;28;20028;-54
2024/03/19 09:37:42;;;;;;;13.55;8.70;;;;;;;;;;5033298;28;20039;-51
2024/03/19 09:40:10;;;;;;;13.48;8.35;;;;;;;;;;5015514;28;20115;-50
2024/03/19 09:42:37;;;;;;;13.77;9.10;;;;;;;;;;5032129;28;20115;-56
2024/03/19 09:45:04;;;;;;;13.82;9.40;;;;;;;;;;5032719;28;20083;-54
2024/03/19 09:47:31;;;;;;;13.77;9.10;;;;;;;;;;5014796;28;20064;-55
2024/03/19 09:49:59;;;;;;;13.57;8.73;;;;;;;;;;5034293;28;20028;-52
2024/03/19 09:52:25;;;;;;;13.57;8.60;;;;;;;;;;5031971;28;20022;-57
2024/03/19 09:54:51;;;;;;;13.63;8.80;;;;;;;;;;5032225;28;20101;-55
2024/03/19 09:57:21;;;;;;;13.68;8.88;;;;;;;;;;5014293;28;20109;-55
2024/03/19 09:59:47;;;;;;;14.75;11.40;;;;;;;;;;5032767;28;20113;-56
2024/03/19 10:02:17;;;;;;;13.57;8.60;;;;;;;;;;5014109;28;20052;-54
2024/03/19 10:04:47;;;;;;;13.50;8.40;;;;;;;;;;5031764;28;20038;-56
2024/03/19 10:07:16;;;;;;;13.70;9.10;;;;;;;;;;5032407;28;20094;-55
2024/03/19 10:09:45;;;;;;;13.60;8.60;;;;;;;;;;5032825;28;20428;-50
2024/03/19 10:12:12;;;;;;;13.70;9.00;;;;;;;;;;5016060;28;20025;-54
2024/03/19 10:14:38;;;;;;;13.65;8.80;;;;;;;;;;5032587;28;20048;-52
2024/03/19 10:17:04;;;;;;;13.50;8.30;;;;;;;;;;5014481;28;20021;-51
2024/03/19 10:19:30;;;;;;;13.52;8.50;;;;;;;;;;5032625;28;20452;-55
2024/03/19 10:21:56;;;;;;;13.65;8.75;;;;;;;;;;5032498;28;20514;-54
2024/03/19 10:24:23;;;;;;;14.02;8.75;;;;;;;;;;5032239;28;20437;-48
2024/03/19 10:26:51;;;;;;;13.45;8.30;;;;;;;;;;5014120;28;20017;-53
2024/03/19 10:29:17;;;;;;;13.90;9.32;;;;;;;;;;5032059;28;20029;-48
2024/03/19 10:31:44;;;;;;;13.63;8.75;;;;;;;;;;5031206;28;20389;-51
2024/03/19 10:34:17;;;;;;;14.00;9.55;;;;;;;;;;5031736;28;20021;-52
2024/03/19 10:36:45;;;;;;;13.52;8.38;;;;;;;;;;5014306;28;20025;-54
2024/03/19 10:39:12;;;;;;;13.60;8.77;;;;;;;;;;5031745;28;20501;-53
2024/03/19 10:41:38;;;;;;;13.57;8.70;;;;;;;;;;5013495;28;20033;-51
2024/03/19 10:44:04;;;;;;;13.75;9.10;;;;;;;;;;5031212;28;20033;-54
2024/03/19 10:46:33;;;;;;;13.63;8.80;;;;;;;;;;5031901;28;20461;-55
2024/03/19 10:48:59;;;;;;;26.35;10.35;;;;;;;;;;5031662;28;20045;-50
2024/03/19 10:51:25;;;;;;;13.65;8.90;;;;;;;;;;5031889;28;20022;-53
2024/03/19 10:53:53;;;;;;;13.52;8.40;;;;;;;;;;5014156;28;20029;-53
2024/03/19 10:56:20;;;;;;;15.52;10.15;;;;;;;;;;5031500;28;20061;-52
2024/03/19 10:58:48;;;;;;;13.55;8.60;;;;;;;;;;5031262;28;20079;-51
2024/03/19 11:01:17;;;;;;;13.53;8.40;;;;;;;;;;5030281;28;20030;-56
2024/03/19 11:03:43;;;;;;;13.43;8.20;;;;;;;;;;5029195;28;20296;-54
2024/03/19 11:06:22;;;;;;;13.48;8.30;;;;;;;;;;5029715;28;20025;-55
2024/03/19 11:08:54;;;;;;;13.25;7.88;;;;;;;;;;5029741;28;20028;-54
2024/03/19 11:11:20;;;;;;;13.57;8.50;;;;;;;;;;5029121;28;20392;-52
2024/03/19 11:13:52;;;;;;;13.48;8.35;;;;;;;;;;5029016;28;20022;-53
2024/03/19 11:16:19;;;;;;;13.60;8.73;;;;;;;;;;5011502;28;20109;-55
2024/03/19 11:18:55;;;;;;;14.02;9.25;;;;;;;;;;5029601;28;20116;-54
2024/03/19 11:21:22;;;;;;;13.45;8.30;;;;;;;;;;5029118;28;20028;-54
2024/03/19 11:23:48;;;;;;;13.60;8.77;;;;;;;;;;5029453;28;20514;-51
2024/03/19 11:26:15;;;;;;;13.35;8.07;;;;;;;;;;5030720;28;20033;-54
2024/03/19 11:28:42;;;;;;;13.43;8.20;;;;;;;;;;5012548;28;20033;-54
2024/03/19 11:31:11;;;;;;;13.45;8.45;;;;;;;;;;5030602;28;20025;-56
2024/03/19 11:33:38;;;;;;;13.60;8.70;;;;;;;;;;5011979;28;20079;-56
2024/03/19 11:36:05;;;;;;;13.60;8.60;;;;;;;;;;5030302;28;20029;-54
2024/03/19 11:38:31;;;;;;;13.63;8.88;;;;;;;;;;5012610;28;20108;-55
2024/03/19 11:41:00;;;;;;;13.80;9.20;;;;;;;;;;5030194;28;20087;-51
2024/03/19 11:43:27;;;;;;;13.63;8.80;;;;;;;;;;5029575;28;20614;-52
2024/03/19 11:45:53;;;;;;;13.65;8.85;;;;;;;;;;5012362;28;20088;-54
2024/03/19 11:48:21;;;;;;;14.88;10.60;;;;;;;;;;5012905;28;20048;-53
2024/03/19 11:50:53;;;;;;;13.63;8.68;;;;;;;;;;5012929;28;20036;-54
2024/03/19 11:53:20;;;;;;;13.80;9.30;;;;;;;;;;5029726;28;20032;-54
2024/03/19 11:55:47;;;;;;;13.90;9.40;;;;;;;;;;5030646;28;20092;-55
2024/03/19 11:58:13;;;;;;;13.90;9.48;;;;;;;;;;5030679;28;20407;-53
2024/03/19 12:00:40;;;;;;;13.95;9.73;;;;;;;;;;5012512;28;20105;-53
2024/03/19 12:03:06;;;;;;;13.77;9.30;;;;;;;;;;5028418;28;20402;-56
2024/03/19 12:05:32;;;;;;;15.85;10.25;;;;;;;;;;5029840;28;20116;-54
2024/03/19 12:08:00;;;;;;;14.02;9.90;;;;;;;;;;5029932;28;20034;-53
2024/03/19 12:10:27;;;;;;;13.90;9.33;;;;;;;;;;5011838;28;20503;-53
2024/03/19 12:12:54;;;;;;;14.07;9.90;;;;;;;;;;5029041;28;20271;-52
2024/03/19 12:15:21;;;;;;;14.00;9.82;;;;;;;;;;5029862;28;20383;-54
2024/03/19 12:17:48;;;;;;;15.10;12.23;;;;;;;;;;5029426;28;20021;-55
2024/03/19 12:20:15;;;;;;;14.10;10.30;;;;;;;;;;5011938;28;20084;-56
2024/03/19 12:22:41;;;;;;;14.13;10.20;;;;;;;;;;5028710;28;20041;-54
2024/03/19 12:25:11;;;;;;;14.20;10.40;;;;;;;;;;5029666;28;20097;-53
2024/03/19 12:27:40;;;;;;;14.10;10.13;;;;;;;;;;5029498;28;20041;-53
2024/03/19 12:30:16;;;;;;;14.32;10.77;;;;;;;;;;5011802;28;20026;-55
2024/03/19 12:32:59;;;;;;;14.38;10.85;;;;;;;;;;5011171;28;20116;-54
2024/03/19 12:35:25;;;;;;;14.38;10.85;;;;;;;;;;5014899;28;20060;-53
2024/03/19 12:37:51;;;;;;;14.25;10.57;;;;;;;;;;5036112;28;20456;-52
2024/03/19 12:40:18;;;;;;;16.05;14.05;;;;;;;;;;5018109;28;20029;-53
2024/03/19 12:42:45;;;;;;;25.48;11.65;;;;;;;;;;5035442;28;20025;-51
2024/03/19 12:45:13;;;;;;;14.30;10.70;;;;;;;;;;5018270;28;20065;-55
2024/03/19 12:47:39;;;;;;;14.30;10.65;;;;;;;;;;5065953;22;20040;-54
2024/03/19 12:50:06;;;;;;;14.32;10.80;;;;;;;;;;5056354;28;20125;-53
2024/03/19 12:52:32;;;;;;;14.32;10.70;;;;;;;;;;5054826;28;20430;-51
2024/03/19 12:54:57;;;;;;;14.20;10.30;;;;;;;;;;5055721;28;20025;-52
2024/03/19 12:57:23;;;;;;;14.10;10.00;;;;;;;;;;5055541;28;20025;-54
2024/03/19 12:59:50;;;;;;;14.35;10.90;;;;;;;;;;5054515;28;20119;-56
2024/03/19 13:02:16;;;;;;;14.30;10.68;;;;;;;;;;5055518;28;20479;-54
2024/03/19 13:04:43;;;;;;;15.77;11.05;;;;;;;;;;5053955;28;20052;-55
2024/03/19 13:07:09;;;;;;;14.40;11.00;;;;;;;;;;5054381;28;20483;-54
2024/03/19 13:09:34;;;;;;;14.27;10.50;;;;;;;;;;5054719;28;20035;-54
2024/03/19 13:12:01;;;;;;;14.20;10.32;;;;;;;;;;5055561;28;20017;-57
2024/03/19 13:14:27;;;;;;;14.25;10.55;;;;;;;;;;5055573;28;20029;-54
2024/03/19 13:16:53;;;;;;;14.30;10.70;;;;;;;;;;5055922;28;20593;-54
2024/03/19 13:19:20;;;;;;;14.20;10.48;;;;;;;;;;5055647;28;20051;-55
2024/03/19 13:21:46;;;;;;;14.13;10.20;;;;;;;;;;5054557;28;20402;-52
2024/03/19 13:24:12;;;;;;;14.40;11.00;;;;;;;;;;5054846;28;20406;-56
2024/03/19 13:26:39;;;;;;;14.30;10.70;;;;;;;;;;5055545;28;20024;-55
2024/03/19 13:29:05;;;;;;;14.30;10.77;;;;;;;;;;5055605;28;20036;-53
2024/03/19 13:31:31;;;;;;;14.35;10.63;;;;;;;;;;5037068;28;20116;-55
2024/03/19 13:33:57;;;;;;;14.30;10.50;;;;;;;;;;5033836;28;20021;-52
2024/03/19 13:36:24;;;;;;;14.38;10.90;;;;;;;;;;5055116;28;20028;-53
2024/03/19 13:38:51;;;;;;;14.20;10.40;;;;;;;;;;5055338;28;20127;-51
2024/03/19 13:41:19;;;;;;;14.60;11.32;;;;;;;;;;5055058;28;20063;-54
2024/03/19 13:43:45;;;;;;;14.30;10.60;;;;;;;;;;5054832;28;20056;-52
2024/03/19 13:46:13;;;;;;;14.20;10.30;;;;;;;;;;5054028;28;20033;-51
2024/03/19 13:48:39;;;;;;;14.15;10.20;;;;;;;;;;5050937;28;20025;-50
2024/03/19 13:51:06;;;;;;;15.43;10.80;;;;;;;;;;5052292;28;20025;-55
2024/03/19 13:53:32;;;;;;;14.00;9.82;;;;;;;;;;5050936;28;20032;-53
2024/03/19 13:55:58;;;;;;;14.00;9.98;;;;;;;;;;5051725;28;20021;-57
2024/03/19 13:58:25;;;;;;;14.13;10.13;;;;;;;;;;5051939;28;20506;-56
2024/03/19 14:00:56;;;;;;;14.30;10.45;;;;;;;;;;5052119;28;20625;-56
2024/03/19 14:03:22;;;;;;;14.10;10.00;;;;;;;;;;5051031;28;20037;-52
2024/03/19 14:05:49;;;;;;;14.20;10.45;;;;;;;;;;5051935;28;20113;-55
2024/03/19 14:08:18;;;;;;;14.07;9.98;;;;;;;;;;5051858;28;20029;-54
2024/03/19 14:10:45;;;;;;;14.20;10.38;;;;;;;;;;5050924;28;20055;-53
2024/03/19 14:13:11;;;;;;;14.27;10.60;;;;;;;;;;5051463;28;20378;-55
2024/03/19 14:15:38;;;;;;;14.32;10.65;;;;;;;;;;5052006;28;20029;-50
2024/03/19 14:18:09;;;;;;;14.93;11.20;;;;;;;;;;5052322;28;20057;-52
2024/03/19 14:20:35;;;;;;;14.57;10.73;;;;;;;;;;5052307;28;20405;-55
2024/03/19 14:23:01;;;;;;;14.23;10.40;;;;;;;;;;5051541;28;20064;-56
2024/03/19 14:25:27;;;;;;;13.98;9.75;;;;;;;;;;5052138;28;20044;-51
2024/03/19 14:27:53;;;;;;;14.18;10.32;;;;;;;;;;5050642;28;20036;-54